Milford, Utah Weather observations

Data are for observation ending at time listed.
 Day   Time    Ave.   Ave.  Ave.  Vector   Max.   Stn.    Total    Solar   Ave.  
  of    of     Air    Rel.  Wind   Wind    Wind   Baro.  Precip.   Rad.    Soil  
Year   Day     Temp.  Hum.  Speed  Dir.    Gust   Pres.                    Temp. 
2017   (MST)    F      %     mph   deg.    mph     mb.     in.     W/m2     F   
------------------------------------------------------------------------------
  22   18:10   35.2    81    3.9   187      9.6   837.3    0.00       0    36.6
  22   18:20   35.4    80    5.8   184     12.4   837.2    0.00       0    36.6
  22   18:30   35.0    81    4.9   191     10.9   837.1    0.00       0    36.6
  22   18:40   34.4    83    6.3   181     12.7   837.1    0.00       0    36.7
  22   18:50   34.3    84    9.9   168     16.4   837.0    0.00       0    36.6
  22   19:00   34.8    82   10.0   177     17.4   836.9    0.00       0    36.7
  22   19:10   34.8    81    9.4   183     15.0   836.8    0.00       0    36.7
  22   19:20   34.5    83    8.5   181     16.2   836.6    0.00       0    36.7
  22   19:30   34.2    84    9.0   182     14.4   836.5    0.00       0    36.7
  22   19:40   33.9    85    9.7   183     14.1   836.4    0.00       0    36.7
  22   19:50   33.9    85    8.8   181     15.8   836.2    0.00       0    36.7
  22   20:00   33.7    86    9.0   176     14.9   836.0    0.00       0    36.7
  22   20:10   33.6    86    8.7   178     15.0   835.8    0.00       0    36.7
  22   20:20   33.8    85   10.1   174     16.1   835.6    0.00       0    36.7
  22   20:30   34.3    83   10.3   177     22.9   835.2    0.00       0    36.7
  22   20:40   36.4    75   12.8   174     19.3   834.9    0.00       0    36.7
  22   20:50   36.6    74   14.6   173     26.2   834.7    0.00       0    36.8
  22   21:00   36.3    74   14.8   174     23.5   834.5    0.00       0    36.8
  22   21:10   36.0    74   13.7   175     24.2   834.1    0.00       0    36.8
  22   21:20   36.4    72   11.1   178     20.8   834.3    0.00       0    36.8
  22   21:30   36.1    73   10.4   173     18.5   834.4    0.00       0    36.8
  22   21:40   35.5    75   10.7   171     16.4   834.2    0.00       0    36.8
  22   21:50   35.5    75   10.9   174     19.7   833.9    0.00       0    36.8
  22   22:00   35.8    74   10.8   182     20.4   833.9    0.00       0    36.8
  22   22:10   36.2    72   10.7   184     17.5   833.8    0.00       0    36.8
  22   22:20   36.3    72    9.3   188     16.8   833.8    0.00       0    36.8
  22   22:30   35.9    74    7.2   197     13.3   834.0    0.00       0    36.8
  22   22:40   35.7    74    7.4   195     13.9   834.1    0.00       0    36.8
  22   22:50   35.5    75    8.7   186     17.5   834.4    0.00       0    36.8
  22   23:00   35.5    75    9.5   181     15.9   834.2    0.00       0    36.8
  22   23:10   35.4    76    8.8   184     14.0   834.3    0.00       0    36.8
  22   23:20   35.6    75    8.1   187     16.1   834.2    0.00       0    36.8
  22   23:30   35.2    76    5.4   195     10.8   834.3    0.00       0    36.8
  22   23:40   34.8    78    5.5   194     10.6   834.3    0.00       0    36.8
  22   23:50   34.6    78    6.0   196     11.2   834.2    0.00       0    36.8
  23    0:00   34.6    78    5.9   193     11.2   834.0    0.00       0    36.8
  23    0:10   34.4    79    5.6   192     11.6   833.9    0.00       0    36.8
  23    0:20   34.4    80    6.4   188     13.6   833.8    0.00       0    36.7
  23    0:30   34.6    79    6.9   183     14.0   833.5    0.00       0    36.8
  23    0:40   34.5    80    7.9   187     14.2   833.4    0.00       0    36.7
  23    0:50   34.5    81    9.2   184     14.0   833.1    0.00       0    36.7
  23    1:00   34.5    82   10.2   180     16.3   833.0    0.00       0    36.7
  23    1:10   35.0    81   10.8   179     18.6   832.9    0.00       0    36.7
  23    1:20   34.9    83    9.8   178     17.5   833.0    0.00       0    36.7
  23    1:30   34.4    86    6.6   180     10.8   832.9    0.00       0    36.7
  23    1:40   34.1    88    7.7   179     13.5   832.8    0.00       0    36.7
  23    1:50   34.2    88    9.8   178     16.5   832.6    0.00       0    36.7
  23    2:00   34.2    87    9.0   184     17.0   832.4    0.00       0    36.7
  23    2:10   34.2    87    8.4   182     12.3   832.2    0.00       0    36.7
  23    2:20   34.5    85    8.4   183     14.6   832.1    0.00       0    36.7
  23    2:30   34.4    85    7.7   181     14.2   832.1    0.00       0    36.7
  23    2:40   34.0    87    7.6   181     14.5   831.9    0.00       0    36.7
  23    2:50   33.8    88    8.7   181     14.2   831.6    0.00       0    36.6
  23    3:00   34.0    88    8.8   181     13.7   831.3    0.00       0    36.7
  23    3:10   34.3    86    9.1   182     16.1   831.0    0.00       0    36.7
  23    3:20   34.2    87    8.2   181     13.0   830.9    0.00       0    36.7
  23    3:30   33.8    88    6.5   185     13.3   830.9    0.00       0    36.7
  23    3:40   34.0    88    6.1   187     10.2   831.0    0.00       0    36.7
  23    3:50   34.4    86    6.4   188     11.2   830.9    0.00       0    36.7
  23    4:00   34.8    85    6.6   190     13.2   831.0    0.00       0    36.7
  23    4:10   34.5    86    6.1   191     13.4   830.9    0.00       0    36.7
  23    4:20   34.5    86    7.5   186     15.0   830.8    0.00       0    36.6
  23    4:30   34.4    88    7.7   187     14.0   830.9    0.00       0    36.7
  23    4:40   34.2    88    7.5   185     12.5   830.7    0.00       0    36.7
  23    4:50   34.2    88    7.2   187     14.2   830.5    0.00       0    36.6
  23    5:00   34.4    87    9.0   183     13.7   830.2    0.00       0    36.6
  23    5:10   35.0    85   11.1   178     17.2   830.0    0.00       0    36.6
  23    5:20   35.5    83    9.6   181     17.2   830.0    0.00       0    36.6
  23    5:30   35.9    82    9.1   180     15.3   830.0    0.00       0    36.6
  23    5:40   35.8    82    8.9   182     14.5   829.9    0.00       0    36.6
  23    5:50   35.7    83    9.1   180     16.8   829.8    0.00       0    36.6
  23    6:00   35.3    86    8.9   178     16.2   829.6    0.00       0    36.6
  23    6:10   35.1    87    8.1   184     13.5   829.6    0.00       0    36.6
  23    6:20   35.1    87    7.2   183     14.6   829.5    0.00       0    36.6
  23    6:30   35.1    87    6.7   184     10.9   829.3    0.00       0    36.6
  23    6:40   35.8    84    8.9   176     14.5   829.0    0.00       0    36.6
  23    6:50   36.1    84    9.5   179     15.4   828.7    0.00       0    36.6
  23    7:00   36.1    86   11.6   179     24.4   828.7    0.00       0    36.6
  23    7:10   35.9    88   10.1   179     21.6   828.4    0.01       0    36.6
  23    7:20   36.0    88    8.8   183     15.7   828.2    0.00       0    36.6
  23    7:30   36.1    87    8.5   181     14.4   828.0    0.00       0    36.6
  23    7:40   36.3    87   10.2   182     21.2   828.0    0.01       0    36.6
  23    7:50   36.4    88    7.4   193     17.4   828.2    0.01       0    36.6
  23    8:00   35.8    90    5.7   201     14.5   828.4    0.02       2    36.6
  23    8:10   34.2    92    5.4   198     10.4   828.6    0.01      11    36.6
  23    8:20   33.7    94    4.7   197      9.9   828.8    0.01       9    36.6
  23    8:30   34.0    95    4.2   197      8.6   829.0    0.00      10    36.5
  23    8:40   34.7    95    4.6   193     10.7   829.1    0.00      15    36.6
  23    8:50   35.3    94    5.2   195     12.4   829.2    0.00      20    36.6
  23    9:00   35.4    93    4.7   201     11.6   829.5    0.00      17    36.6
  23    9:10   35.3    93    6.6   191     15.1   829.8    0.00      18    36.5
  23    9:20   35.6    92    7.1   189     16.5   829.9    0.00      28    36.6
  23    9:30   35.4    91    4.5   210     11.0   830.4    0.00      16    36.6
  23    9:40   33.4    91    3.1   215      9.4   830.6    0.01      85    36.6
  23    9:50   33.2    91    5.2   201     14.0   830.6    0.00      91    36.5
  23   10:00   33.7    90    6.5   195     15.0   830.1    0.00     231    36.5
  23   10:10   35.4    85    7.3   189     16.3   830.1    0.00     157    36.5
  23   10:20   35.9    84    9.9   185     18.3   830.2    0.00     315    36.5
  23   10:30   37.9    79   10.1   183     24.9   830.4    0.00     352    36.5
  23   10:40   38.6    78    9.6   181     24.8   830.7    0.00     364    36.5
  23   10:50   39.2    74    8.6   187     18.2   831.0    0.00     391    36.5
  23   11:00   39.8    70    8.8   190     17.8   831.4    0.00     397    36.6
  23   11:10   40.3    65    9.6   189     18.5   831.6    0.00     436    36.6
  23   11:20   40.7    60   11.0   188     23.6   831.6    0.00     494    36.6
  23   11:30   40.9    59   10.1   190     23.3   831.7    0.00     478    36.6
  23   11:40   41.7    59    8.4   196     17.5   831.8    0.00     581    36.6
  23   11:50   40.7    57   10.4   190     21.0   831.8    0.00     368    36.6
  23   12:00   40.0    56    9.8   194     23.5   831.7    0.00     252    36.6
  23   12:10   40.3    54    9.0   199     17.7   831.5    0.00     429    36.6
  23   12:20   41.6    53    8.5   202     16.8   831.5    0.00     488    36.7
  23   12:30   39.9    56    8.4   192     18.3   831.6    0.00     225    36.7
  23   12:40   39.3    58    6.8   203     17.3   831.5    0.00     189    36.7
  23   12:50   39.1    58    6.7   206     16.4   831.3    0.00     201    36.8
  23   13:00   39.5    59    5.3   203     15.4   831.2    0.00     217    36.7
  23   13:10   39.1    58    6.2   202     19.7   831.1    0.00     172    36.8
  23   13:20   38.7    58    6.9   200     14.4   831.0    0.00     178    36.8
  23   13:30   39.5    58    7.0   196     17.7   830.8    0.00     319    36.8
  23   13:40   40.0    56    7.1   197     15.9   830.7    0.00     353    36.9
  23   13:50   41.3    54    6.2   207     19.3   830.7    0.00     407    36.9
  23   14:00   40.4    58    7.1   196     15.7   830.8    0.00     221    36.9
  23   14:10   39.3    60    6.9   194     15.3   830.7    0.00     206    36.9
  23   14:20   39.1    59    7.7   193     13.7   830.6    0.00     175    37.0
  23   14:30   39.0    59    6.9   197     12.6   830.5    0.00     208    37.0
  23   14:40   39.1    60    7.1   193     18.2   830.4    0.00     159    37.1
  23   14:50   39.5    59    7.9   192     14.6   830.4    0.00     213    37.1
  23   15:00   39.7    58    9.7   188     20.8   830.4    0.00     231    37.2
  23   15:10   38.9    62    8.4   192     15.9   830.6    0.00     151    37.2
  23   15:20   38.2    66    7.8   192     17.4   830.6    0.00     139    37.2
  23   15:30   38.1    67    8.8   190     15.3   830.6    0.00     152    37.3
  23   15:40   37.6    70    9.3   189     17.3   830.7    0.00     135    37.3
  23   15:50   36.7    72    9.0   182     16.1   830.7    0.00     118    37.4
  23   16:00   35.9    73    8.5   183     18.3   830.7    0.00      53    37.4
  23   16:10   36.1    74    7.3   185     15.1   830.8    0.00     107    37.4
  23   16:20   36.4    72    4.8   195     11.2   830.9    0.00      56    37.4
  23   16:30   36.0    71    4.8   194     11.3   831.0    0.00      53    37.5
  23   16:40   36.0    71    3.4   200      7.7   831.1    0.00      60    37.5
  23   16:50   35.9    72    3.6   197      7.5   831.1    0.00      57    37.5
  23   17:00   35.8    74    3.6   194      8.1   831.2    0.00      40    37.5
  23   17:10   35.3    74    4.1   198      8.3   831.2    0.00      19    37.6
  23   17:20   35.0    73    4.0   186      9.8   831.2    0.00      36    37.6
  23   17:30   34.5    73    4.7   184      8.6   831.3    0.00      21    37.6
  23   17:40   33.6    76    3.0   191      5.9   831.2    0.00      10    37.6
  23   17:50   33.1    78    3.0   189      5.0   831.3    0.00       2    37.7
  23   18:00   32.8    79    3.0   191      5.0   831.2    0.00       0    37.6

Return to Milford, Utah graphs page.


Western Regional Climate Center,wrcc@dri.edu